Time;durP1;ratioP1;P1;durP2;ratioP2;P2;SDS_P1;SDS_P2;PMS_P1;PMS_P2;Temp;Humidity;BMP_temperature;BMP_pressure;BME280_temperature;BME280_humidity;BME280_pressure;Samples;Min_cycle;Max_cycle;Signal;HPM_P1;HPM_P2
2023/02/03 00:00:19;;;;;;;4.37;1.70;;;;;;;6.64;100.00;101876.47;2072091;28;20181;-60
2023/02/03 00:01:19;;;;;;;3.03;1.43;;;;;;;6.65;100.00;101878.06;2072406;28;20194;-60
2023/02/03 00:02:20;;;;;;;3.87;1.40;;;;;;;6.65;100.00;101884.38;2071701;28;20259;-60
2023/02/03 00:03:20;;;;;;;3.20;1.40;;;;;;;6.67;100.00;101890.28;2072637;28;20296;-61
2023/02/03 00:04:21;;;;;;;4.67;1.40;;;;;;;6.69;100.00;101884.41;2072199;28;20251;-60
2023/02/03 00:05:21;;;;;;;2.80;1.50;;;;;;;6.75;100.00;101874.66;2072525;28;20721;-61
2023/02/03 00:06:22;;;;;;;2.30;1.23;;;;;;;6.80;100.00;101877.06;2071908;28;20191;-61
2023/02/03 00:07:23;;;;;;;3.97;1.80;;;;;;;6.80;100.00;101877.06;2072509;28;20188;-60
2023/02/03 00:08:23;;;;;;;3.87;1.70;;;;;;;6.82;100.00;101883.78;2072497;28;20416;-60
2023/02/03 00:09:24;;;;;;;5.47;1.60;;;;;;;6.83;100.00;101888.13;2073936;28;20208;-60
2023/02/03 00:10:25;;;;;;;3.73;1.57;;;;;;;6.85;100.00;101880.28;2081403;28;20204;-60
2023/02/03 00:11:25;;;;;;;2.73;1.50;;;;;;;6.54;100.00;101842.16;2086382;28;20188;-60
2023/02/03 00:12:26;;;;;;;3.60;1.63;;;;;;;6.80;100.00;101882.56;2084057;28;20203;-61
2023/02/03 00:13:27;;;;;;;3.23;1.23;;;;;;;6.67;100.00;101887.53;2080427;28;20204;-61
2023/02/03 00:14:27;;;;;;;3.23;1.43;;;;;;;6.63;100.00;101892.25;2078063;28;20224;-60
2023/02/03 00:15:28;;;;;;;2.77;1.40;;;;;;;6.66;100.00;101896.19;2073642;28;20185;-60
2023/02/03 00:16:28;;;;;;;4.80;1.70;;;;;;;6.67;100.00;101897.78;2080442;28;20587;-60
2023/02/03 00:17:29;;;;;;;4.07;1.83;;;;;;;6.02;100.00;101800.19;2072514;28;20185;-60
2023/02/03 00:18:29;;;;;;;3.67;1.57;;;;;;;6.72;100.00;101913.97;2072448;28;20182;-60
2023/02/03 00:19:30;;;;;;;2.60;1.43;;;;;;;6.70;100.00;101914.34;2077765;28;20242;-61
2023/02/03 00:20:30;;;;;;;2.57;1.30;;;;;;;6.70;100.00;101916.31;2080362;28;20185;-60
2023/02/03 00:21:32;;;;;;;4.07;1.70;;;;;;;6.72;100.00;101913.97;2080451;28;20218;-60
2023/02/03 00:22:32;;;;;;;4.18;1.75;;;;;;;6.07;100.00;101800.66;2080522;28;20667;-60
2023/02/03 00:23:33;;;;;;;4.43;1.80;;;;;;;6.74;100.00;101898.66;2075871;28;20573;-61
2023/02/03 00:24:33;;;;;;;2.70;1.30;;;;;;;6.69;100.00;101903.69;2076111;28;20177;-60
2023/02/03 00:25:34;;;;;;;3.50;1.40;;;;;;;6.69;100.00;101907.25;2080376;28;20220;-61
2023/02/03 00:26:40;;;;;;;3.73;1.80;;;;;;;6.67;100.00;101911.56;2080314;28;20173;-61
2023/02/03 00:27:40;;;;;;;3.83;1.70;;;;;;;6.69;100.00;101909.22;2080363;28;20168;-61
2023/02/03 00:28:41;;;;;;;4.43;1.50;;;;;;;6.32;100.00;101848.56;2080819;28;20172;-61
2023/02/03 00:29:41;;;;;;;2.57;1.53;;;;;;;6.51;100.00;101888.94;2072202;28;20177;-60
2023/02/03 00:30:42;;;;;;;3.90;1.60;;;;;;;6.57;100.00;101909.47;2072600;28;20201;-61
2023/02/03 00:31:42;;;;;;;4.73;1.80;;;;;;;6.49;100.00;101908.56;2078208;28;20659;-61
2023/02/03 00:32:42;;;;;;;2.90;1.50;;;;;;;6.43;100.00;101912.03;2075938;28;20197;-60
2023/02/03 00:33:43;;;;;;;3.43;1.60;;;;;;;6.40;100.00;101910.81;2076233;28;20216;-60
2023/02/03 00:34:43;;;;;;;2.40;1.30;;;;;;;6.43;100.00;101912.81;2082131;28;20567;-60
2023/02/03 00:35:44;;;;;;;5.67;1.70;;;;;;;6.40;100.00;101910.03;2081833;28;20190;-60
2023/02/03 00:36:47;;;;;;;3.07;1.50;;;;;;;6.33;100.00;101915.44;2082107;28;20176;-61
2023/02/03 00:37:52;;;;;;;3.78;1.70;;;;;;;6.21;100.00;101894.41;2074274;28;20212;-60
2023/02/03 00:38:53;;;;;;;2.83;1.48;;;;;;;5.94;100.00;101848.03;2074134;28;20200;-60
2023/02/03 00:39:53;;;;;;;3.83;1.60;;;;;;;5.75;100.00;101815.13;2073523;28;20203;-60
2023/02/03 00:40:54;;;;;;;4.57;1.60;;;;;;;6.13;100.00;101894.69;2079576;28;20843;-60
2023/02/03 00:41:54;;;;;;;3.57;1.40;;;;;;;6.14;100.00;101902.59;2082460;28;20212;-61
2023/02/03 00:42:55;;;;;;;2.90;1.50;;;;;;;6.05;100.00;101898.53;2078734;28;20199;-60
2023/02/03 00:43:56;;;;;;;3.47;1.37;;;;;;;5.97;100.00;101885.81;2073961;28;20443;-60
2023/02/03 00:44:56;;;;;;;3.70;1.40;;;;;;;5.93;100.00;101888.50;2074063;28;20210;-60
2023/02/03 00:45:57;;;;;;;2.30;1.20;;;;;;;5.93;100.00;101891.25;2073686;28;20635;-60
2023/02/03 00:46:57;;;;;;;2.70;1.40;;;;;;;5.21;100.00;101785.22;2074173;28;20186;-60
2023/02/03 00:47:58;;;;;;;3.60;1.80;;;;;;;5.90;100.00;101899.47;2074145;28;20197;-60
2023/02/03 00:48:58;;;;;;;2.33;1.37;;;;;;;5.82;100.00;101903.25;2082098;28;20738;-60
2023/02/03 00:49:59;;;;;;;3.00;1.60;;;;;;;5.69;100.00;101899.88;2076803;28;20197;-60
2023/02/03 00:50:59;;;;;;;5.03;2.07;;;;;;;5.36;100.00;101871.44;2073882;28;20211;-60
2023/02/03 00:52:00;;;;;;;3.80;1.70;;;;;;;5.50;100.00;101916.47;2073928;28;20643;-60
2023/02/03 00:53:00;;;;;;;3.30;1.60;;;;;;;5.35;100.00;101894.59;2074120;28;20188;-60
2023/02/03 00:54:00;;;;;;;4.40;2.10;;;;;;;5.39;100.00;101904.47;2073899;28;20283;-60
2023/02/03 00:55:02;;;;;;;3.80;2.10;;;;;;;4.93;100.00;101834.16;2074070;28;20287;-60
2023/02/03 00:56:02;;;;;;;3.20;1.90;;;;;;;4.39;100.00;101756.69;2073483;28;20298;-60
2023/02/03 00:57:03;;;;;;;3.93;2.00;;;;;;;5.39;100.00;101920.19;2080092;28;20204;-60
2023/02/03 00:58:04;;;;;;;3.37;2.10;;;;;;;5.37;100.00;101919.75;2077080;28;20245;-60
2023/02/03 00:59:05;;;;;;;4.87;2.30;;;;;;;5.28;100.00;101922.75;2074005;28;20203;-60
2023/02/03 01:00:07;;;;;;;4.30;2.13;;;;;;;4.28;100.00;101768.59;2073533;28;20240;-60
2023/02/03 01:01:08;;;;;;;3.80;1.98;;;;;;;5.20;100.00;101911.97;2073005;28;20194;-60
2023/02/03 01:02:08;;;;;;;5.83;2.27;;;;;;;5.19;100.00;101899.41;2073361;28;20659;-60
2023/02/03 01:03:09;;;;;;;3.67;2.00;;;;;;;5.30;100.00;101903.94;2074209;28;20563;-60
2023/02/03 01:04:09;;;;;;;3.37;2.03;;;;;;;4.93;100.00;101869.88;2073731;28;20312;-60
2023/02/03 01:05:10;;;;;;;4.97;2.50;;;;;;;5.16;100.00;101917.44;2074106;28;20181;-60
2023/02/03 01:06:14;;;;;;;4.00;2.05;;;;;;;4.91;100.00;101866.72;2073446;28;20201;-61
2023/02/03 01:07:14;;;;;;;5.28;2.53;;;;;;;5.21;100.00;101919.88;2073901;28;20209;-60
2023/02/03 01:08:15;;;;;;;5.53;2.10;;;;;;;5.18;100.00;101915.09;2073654;28;20196;-60
2023/02/03 01:09:15;;;;;;;5.20;2.50;;;;;;;4.33;100.00;101791.06;2074018;28;20216;-60
2023/02/03 01:10:16;;;;;;;5.27;2.53;;;;;;;4.97;100.00;101887.22;2072875;28;20235;-60
2023/02/03 01:11:19;;;;;;;6.80;2.67;;;;;;;5.20;100.00;101921.03;2081465;28;20687;-60
2023/02/03 01:12:20;;;;;;;4.78;2.78;;;;;;;5.17;100.00;101926.44;2081221;28;20266;-61
2023/02/03 01:13:20;;;;;;;5.20;2.60;;;;;;;5.13;100.00;101918.13;2073764;28;20263;-60
2023/02/03 01:14:21;;;;;;;4.67;2.70;;;;;;;5.08;100.00;101910.19;2073615;28;20188;-60
2023/02/03 01:15:21;;;;;;;5.00;3.00;;;;;;;5.16;100.00;101920.16;2074048;28;20229;-60
2023/02/03 01:16:23;;;;;;;5.50;3.00;;;;;;;5.16;100.00;101911.94;2073265;28;20192;-60
2023/02/03 01:17:24;;;;;;;6.20;2.95;;;;;;;5.14;100.00;101916.19;2073849;28;20705;-60
2023/02/03 01:18:24;;;;;;;5.57;2.90;;;;;;;5.14;100.00;101916.97;2073720;28;20604;-60
2023/02/03 01:19:25;;;;;;;4.80;2.60;;;;;;;5.17;100.00;101916.25;2073842;28;20851;-60
2023/02/03 01:20:26;;;;;;;5.93;2.90;;;;;;;5.18;100.00;101922.56;2073647;28;20184;-60
2023/02/03 01:21:26;;;;;;;5.17;2.87;;;;;;;4.72;100.00;101857.72;2074018;28;20267;-60
2023/02/03 01:22:30;;;;;;;4.27;2.77;;;;;;;5.14;100.00;101927.19;2073637;28;20278;-60
2023/02/03 01:23:31;;;;;;;7.85;2.95;;;;;;;5.14;100.00;101932.69;2073764;28;20670;-60
2023/02/03 01:24:31;;;;;;;5.00;3.07;;;;;;;4.93;100.00;101926.78;2073593;28;20571;-60
2023/02/03 01:25:34;;;;;;;5.37;3.27;;;;;;;3.97;100.00;101805.22;2073678;28;20208;-60
2023/02/03 01:26:35;;;;;;;5.25;2.90;;;;;;;4.67;100.00;101941.16;2073622;28;20673;-60
2023/02/03 01:27:35;;;;;;;5.13;2.83;;;;;;;4.62;100.00;101943.41;2075629;28;20627;-60
2023/02/03 01:28:37;;;;;;;6.03;3.10;;;;;;;4.63;100.00;101951.28;2081931;28;20234;-60
2023/02/03 01:29:37;;;;;;;4.65;2.97;;;;;;;4.53;100.00;101942.81;2081515;28;20212;-60
2023/02/03 01:30:38;;;;;;;5.30;2.83;;;;;;;4.60;100.00;101946.50;2074021;28;20212;-60
2023/02/03 01:31:39;;;;;;;5.33;2.50;;;;;;;4.56;100.00;101945.63;2073462;28;20197;-60
2023/02/03 01:32:40;;;;;;;5.32;2.92;;;;;;;4.58;100.00;101948.84;2073739;28;20259;-60
2023/02/03 01:33:41;;;;;;;4.90;2.73;;;;;;;4.56;100.00;101945.63;2078362;28;20222;-60
2023/02/03 01:34:41;;;;;;;6.43;3.13;;;;;;;4.56;100.00;101948.38;2078164;28;20240;-60
2023/02/03 01:35:42;;;;;;;5.93;3.20;;;;;;;4.45;100.00;101952.84;2078209;28;20228;-60
2023/02/03 01:36:42;;;;;;;5.47;3.27;;;;;;;4.45;100.00;101965.75;2088733;28;20207;-60
2023/02/03 01:37:43;;;;;;;5.30;3.40;;;;;;;4.45;100.00;101952.03;2081833;28;20181;-60
2023/02/03 01:38:44;;;;;;;5.03;3.10;;;;;;;4.52;100.00;101938.50;2090139;28;20226;-60
2023/02/03 01:39:45;;;;;;;5.80;3.17;;;;;;;4.53;100.00;101940.06;2081984;28;20184;-60
2023/02/03 01:40:45;;;;;;;4.63;2.90;;;;;;;4.45;100.00;101936.38;2083621;28;20200;-61
2023/02/03 01:41:46;;;;;;;7.17;3.20;;;;;;;4.50;100.00;101938.03;2081722;28;20259;-60
2023/02/03 01:42:46;;;;;;;5.97;3.23;;;;;;;4.51;100.00;101939.66;2085654;28;20199;-60
2023/02/03 01:43:52;;;;;;;4.70;3.10;;;;;;;3.74;100.00;101796.06;2087263;28;21573;-60
2023/02/03 01:44:53;;;;;;;5.75;3.05;;;;;;;4.62;100.00;101948.91;2083864;28;20177;-60
2023/02/03 01:45:54;;;;;;;4.22;2.70;;;;;;;4.57;100.00;101936.22;2088204;28;20179;-60
2023/02/03 01:46:54;;;;;;;3.70;2.60;;;;;;;4.60;100.00;101934.72;2089139;28;20214;-60
2023/02/03 01:47:58;;;;;;;5.87;2.97;;;;;;;3.72;100.00;101803.88;2089543;28;20180;-60
2023/02/03 01:49:23;;;;;;;5.43;2.55;;;;;;;4.60;100.00;101929.22;2081064;28;20196;-59
2023/02/03 01:50:26;;;;;;;4.35;2.60;;;;;;;4.58;100.00;101924.13;2073166;28;20170;-60
2023/02/03 01:51:26;;;;;;;4.22;2.30;;;;;;;4.55;100.00;101930.31;2081799;28;20303;-60
2023/02/03 01:52:28;;;;;;;4.20;2.60;;;;;;;4.60;100.00;101929.22;2073931;28;20306;-60
2023/02/03 01:53:28;;;;;;;4.70;2.33;;;;;;;3.81;100.00;101793.50;2073664;28;20201;-61
2023/02/03 01:54:38;;;;;;;4.07;2.40;;;;;;;4.72;100.00;101929.09;2073444;28;20203;-60
2023/02/03 01:55:44;;;;;;;5.85;2.65;;;;;;;4.75;100.00;101934.66;2078752;28;20195;-61
2023/02/03 01:56:50;;;;;;;6.82;2.55;;;;;;;4.81;100.00;101927.72;2081686;28;20691;-61
2023/02/03 01:57:57;;;;;;;4.55;2.30;;;;;;;4.81;100.00;101935.16;2081609;28;21165;-61
2023/02/03 01:58:59;;;;;;;4.38;1.92;;;;;;;4.83;100.00;101933.63;2086099;28;20183;-60
2023/02/03 02:00:01;;;;;;;3.42;2.10;;;;;;;3.82;100.00;101773.16;2085728;28;20204;-61
2023/02/03 02:01:02;;;;;;;3.92;2.20;;;;;;;4.90;100.00;101943.97;2084142;28;20181;-61
2023/02/03 02:02:05;;;;;;;3.70;2.17;;;;;;;4.85;100.00;101947.81;2088188;28;20223;-61
2023/02/03 02:03:07;;;;;;;4.00;2.13;;;;;;;4.91;100.00;101942.81;2082152;28;20179;-60
2023/02/03 02:04:09;;;;;;;4.28;2.38;;;;;;;4.79;100.00;101926.50;2089838;28;20386;-60
2023/02/03 02:05:42;;;;;;;4.57;2.38;;;;;;;4.97;100.00;101936.69;2082011;28;20192;-61
2023/02/03 02:06:44;;;;;;;4.40;2.15;;;;;;;5.01;100.00;101939.47;2075095;28;20231;-60
2023/02/03 02:07:46;;;;;;;3.92;2.40;;;;;;;5.08;100.00;101948.66;2081461;28;20184;-60
2023/02/03 02:08:49;;;;;;;4.57;2.42;;;;;;;4.62;100.00;101886.53;2081502;28;20561;-61
2023/02/03 02:09:50;;;;;;;3.17;2.25;;;;;;;4.99;100.00;101939.88;2081237;28;20185;-61
2023/02/03 02:10:51;;;;;;;4.80;2.40;;;;;;;5.16;100.00;101960.59;2074166;28;20193;-61
2023/02/03 02:11:52;;;;;;;4.10;2.60;;;;;;;5.22;100.00;101953.63;2073413;28;20200;-61
2023/02/03 02:12:56;;;;;;;5.23;2.40;;;;;;;5.22;100.00;101956.38;2073334;28;20723;-61
2023/02/03 02:14:00;;;;;;;4.60;2.45;;;;;;;5.25;100.00;101958.41;2073163;28;20209;-61
2023/02/03 02:15:02;;;;;;;3.53;2.47;;;;;;;5.26;100.00;101960.81;2073312;28;20223;-61
2023/02/03 02:16:35;;;;;;;4.07;2.50;;;;;;;5.35;100.00;101975.13;2073041;28;20177;-61
2023/02/03 02:18:01;;;;;;;3.47;2.20;;;;;;;5.32;100.00;101975.03;2072058;28;20220;-61
2023/02/03 02:19:32;;;;;;;4.28;2.58;;;;;;;5.30;100.00;101966.34;2073537;28;20162;-60
2023/02/03 02:20:51;;;;;;;5.00;2.58;;;;;;;5.36;100.00;101973.94;2075131;28;20205;-60
2023/02/03 02:22:25;;;;;;;3.80;2.10;;;;;;;5.34;100.00;101972.72;2077941;28;20193;-61
2023/02/03 02:23:56;;;;;;;4.50;2.13;;;;;;;5.39;100.00;101978.69;2073472;28;20217;-60
2023/02/03 02:25:27;;;;;;;3.95;2.30;;;;;;;5.40;100.00;101980.31;2073748;28;20627;-61
2023/02/03 02:26:46;;;;;;;4.10;2.10;;;;;;;5.39;100.00;101975.94;2077281;28;20686;-61
2023/02/03 02:28:05;;;;;;;3.38;2.08;;;;;;;5.39;100.00;101977.91;2073109;28;20200;-61
2023/02/03 02:29:43;;;;;;;4.13;2.30;;;;;;;5.47;100.00;101974.13;2073330;28;20538;-60
2023/02/03 02:31:02;;;;;;;4.68;2.30;;;;;;;5.53;100.00;101978.19;2074105;28;20294;-60
2023/02/03 02:32:13;;;;;;;4.45;2.53;;;;;;;4.94;100.00;101906.41;2079089;28;20176;-61
2023/02/03 02:33:16;;;;;;;4.30;2.53;;;;;;;5.45;100.00;101982.75;2073659;28;20370;-61
2023/02/03 02:34:59;;;;;;;5.47;2.33;;;;;;;5.49;100.00;101983.59;2072216;28;20215;-61
2023/02/03 02:36:17;;;;;;;5.45;2.30;;;;;;;5.52;100.00;101987.56;2072304;28;20604;-61
2023/02/03 02:37:29;;;;;;;4.22;2.17;;;;;;;5.51;100.00;101986.00;2073162;28;20237;-60
2023/02/03 02:38:56;;;;;;;2.88;2.03;;;;;;;5.53;100.00;101986.44;2073059;28;20607;-61
2023/02/03 02:40:08;;;;;;;3.53;2.15;;;;;;;5.24;100.00;101943.88;2073602;28;20170;-61
2023/02/03 02:41:25;;;;;;;3.92;2.50;;;;;;;5.57;100.00;101987.28;2081214;28;20177;-61
2023/02/03 02:42:36;;;;;;;5.00;2.28;;;;;;;5.65;100.00;101987.03;2078779;28;20235;-61
2023/02/03 02:43:41;;;;;;;4.20;2.25;;;;;;;5.64;100.00;101996.44;2073079;28;20158;-60
2023/02/03 02:44:51;;;;;;;5.13;2.50;;;;;;;5.70;100.00;101999.69;2073281;28;20166;-61
2023/02/03 02:46:04;;;;;;;4.25;2.05;;;;;;;5.75;100.00;101980.91;2072613;28;20162;-61
2023/02/03 02:47:15;;;;;;;5.90;2.50;;;;;;;5.80;100.00;101999.13;2073060;28;20197;-61
2023/02/03 02:48:31;;;;;;;5.20;2.40;;;;;;;5.78;100.00;101996.72;2075709;28;20198;-61
2023/02/03 02:49:38;;;;;;;8.20;2.60;;;;;;;5.77;100.00;102006.13;2076875;28;20204;-61
2023/02/03 02:50:44;;;;;;;6.22;2.08;;;;;;;5.70;100.00;102000.47;2076556;28;20247;-61
2023/02/03 02:51:47;;;;;;;3.58;2.05;;;;;;;5.72;100.00;102005.63;2077953;28;20194;-60
2023/02/03 02:52:49;;;;;;;4.70;2.38;;;;;;;5.76;100.00;102001.78;2073018;28;20183;-61
2023/02/03 02:53:56;;;;;;;6.82;2.40;;;;;;;5.79;100.00;102001.03;2072251;28;20209;-61
2023/02/03 02:55:04;;;;;;;4.15;2.28;;;;;;;5.86;100.00;102008.66;2073601;28;20555;-60
2023/02/03 02:56:08;;;;;;;3.55;2.03;;;;;;;5.85;100.00;102012.56;2081583;28;20677;-60
2023/02/03 02:57:12;;;;;;;5.07;2.20;;;;;;;5.37;100.00;101945.28;2088753;28;20657;-61
2023/02/03 02:58:15;;;;;;;4.43;2.70;;;;;;;5.63;100.00;101980.31;2081195;28;20181;-60
2023/02/03 02:59:16;;;;;;;4.88;2.45;;;;;;;5.79;100.00;101992.78;2073415;28;20186;-61
2023/02/03 03:00:17;;;;;;;4.23;2.60;;;;;;;5.92;100.00;102009.94;2080815;28;20177;-60
2023/02/03 03:01:17;;;;;;;5.27;2.27;;;;;;;5.87;100.00;102015.75;2089624;28;20532;-61
2023/02/03 03:02:18;;;;;;;6.80;2.60;;;;;;;5.84;100.00;102013.75;2083544;28;20324;-61
2023/02/03 03:03:21;;;;;;;3.60;2.23;;;;;;;5.36;100.00;101942.91;2076734;28;20255;-61
2023/02/03 03:04:29;;;;;;;3.65;1.98;;;;;;;5.46;100.00;101967.84;2072841;28;20261;-62
2023/02/03 03:05:29;;;;;;;4.70;2.38;;;;;;;4.90;100.00;101867.88;2073067;28;20209;-61
2023/02/03 03:06:36;;;;;;;4.93;2.33;;;;;;;5.83;100.00;102018.44;2073971;28;20185;-61
2023/02/03 03:07:50;;;;;;;6.57;2.55;;;;;;;5.92;100.00;102016.25;2080865;28;20176;-60
2023/02/03 03:09:10;;;;;;;3.85;2.20;;;;;;;5.90;100.00;102021.31;2079352;28;20276;-61
2023/02/03 03:10:15;;;;;;;4.68;2.33;;;;;;;5.84;100.00;102022.00;2072080;28;20264;-60
2023/02/03 03:11:17;;;;;;;6.20;2.60;;;;;;;5.74;100.00;102025.31;2072925;28;20774;-61
2023/02/03 03:12:26;;;;;;;5.57;2.40;;;;;;;5.68;100.00;102026.75;2074398;28;20207;-60
2023/02/03 03:13:33;;;;;;;5.28;2.45;;;;;;;5.63;100.00;102032.56;2079415;28;20180;-60
2023/02/03 03:14:35;;;;;;;5.40;2.08;;;;;;;4.81;100.00;101916.75;2074155;28;20163;-60
2023/02/03 03:15:39;;;;;;;6.68;2.40;;;;;;;5.39;100.00;102010.91;2080170;28;20655;-61
2023/02/03 03:16:47;;;;;;;4.78;2.22;;;;;;;5.48;100.00;102038.97;2073077;28;20181;-61
2023/02/03 03:18:12;;;;;;;5.63;2.70;;;;;;;5.11;100.00;101988.34;2072898;28;20195;-60
2023/02/03 03:19:20;;;;;;;4.43;2.05;;;;;;;4.98;100.00;101981.44;2074645;28;20587;-61
2023/02/03 03:20:24;;;;;;;3.55;2.35;;;;;;;5.37;100.00;102047.00;2080336;28;20215;-60
2023/02/03 03:21:31;;;;;;;4.53;2.50;;;;;;;5.29;100.00;102044.47;2081067;28;20177;-62
2023/02/03 03:22:39;;;;;;;4.20;2.30;;;;;;;5.26;100.00;102042.44;2080115;28;20622;-60
2023/02/03 03:23:44;;;;;;;4.35;2.10;;;;;;;4.53;100.00;101931.84;2073251;28;20237;-59
2023/02/03 03:24:47;;;;;;;4.45;2.25;;;;;;;5.26;100.00;102050.69;2088310;28;20157;-61
2023/02/03 03:26:04;;;;;;;6.00;2.28;;;;;;;4.98;100.00;102014.41;2088097;28;20593;-61
2023/02/03 03:27:11;;;;;;;4.22;2.42;;;;;;;5.24;100.00;102061.28;2073055;28;20532;-61
2023/02/03 03:28:17;;;;;;;5.07;2.30;;;;;;;5.17;100.00;102055.59;2080846;28;20180;-60
2023/02/03 03:29:30;;;;;;;4.18;2.38;;;;;;;5.24;100.00;102070.28;2089523;28;20259;-60
2023/02/03 03:30:36;;;;;;;3.88;2.10;;;;;;;5.20;100.00;102074.94;2080730;28;20257;-60
2023/02/03 03:31:38;;;;;;;4.32;2.38;;;;;;;4.25;100.00;101933.97;2080997;28;20184;-60
2023/02/03 03:32:39;;;;;;;4.82;2.75;;;;;;;5.19;100.00;102078.81;2072711;28;20192;-61
2023/02/03 03:33:39;;;;;;;5.47;3.10;;;;;;;5.17;100.00;102077.59;2079777;28;20185;-61
2023/02/03 03:34:41;;;;;;;4.90;2.67;;;;;;;4.99;100.00;102048.97;2080794;28;20212;-60
2023/02/03 03:35:48;;;;;;;4.03;2.40;;;;;;;5.21;100.00;102073.78;2080528;28;20371;-60
2023/02/03 03:36:59;;;;;;;5.72;2.72;;;;;;;5.06;100.00;102051.84;2080881;28;20638;-62
2023/02/03 03:38:09;;;;;;;5.00;2.60;;;;;;;4.43;100.00;101946.13;2080717;28;20208;-61
2023/02/03 03:39:33;;;;;;;5.07;2.50;;;;;;;5.27;100.00;102094.31;2080865;28;20181;-61
2023/02/03 03:40:42;;;;;;;3.83;2.42;;;;;;;5.27;100.00;102074.28;2080728;28;20197;-61
2023/02/03 03:42:06;;;;;;;6.93;2.90;;;;;;;4.88;100.00;102010.25;2073826;28;20181;-62
2023/02/03 03:43:31;;;;;;;5.22;2.40;;;;;;;5.30;100.00;102076.31;2072972;28;20539;-61
2023/02/03 03:45:13;;;;;;;4.45;2.50;;;;;;;5.30;100.00;102074.38;2074290;28;20193;-61
2023/02/03 03:46:20;;;;;;;5.55;2.70;;;;;;;5.29;100.00;102071.97;2079587;28;20286;-60
2023/02/03 03:47:40;;;;;;;4.55;2.67;;;;;;;5.32;100.00;102076.72;2080887;28;20201;-60
2023/02/03 03:48:54;;;;;;;3.78;2.17;;;;;;;5.12;100.00;102044.94;2080799;28;20180;-61
2023/02/03 03:49:58;;;;;;;4.68;2.60;;;;;;;5.35;100.00;102081.50;2072457;28;20564;-60
2023/02/03 03:51:04;;;;;;;4.78;2.80;;;;;;;4.63;100.00;101955.97;2072441;28;20589;-61
2023/02/03 03:52:08;;;;;;;4.90;2.60;;;;;;;5.41;100.00;102075.38;2079660;28;20620;-61
2023/02/03 03:53:10;;;;;;;5.78;2.80;;;;;;;5.42;100.00;102074.22;2074486;28;20177;-60
2023/02/03 03:54:18;;;;;;;5.05;2.47;;;;;;;5.31;100.00;102075.94;2077169;28;20275;-61
2023/02/03 03:55:19;;;;;;;5.25;2.60;;;;;;;5.41;100.00;102080.06;2075051;28;20277;-61
2023/02/03 03:56:26;;;;;;;6.10;2.43;;;;;;;5.43;100.00;102089.53;2076284;28;20669;-61
2023/02/03 03:57:38;;;;;;;5.25;2.30;;;;;;;5.41;100.00;102085.56;2077167;28;20218;-61
2023/02/03 03:58:44;;;;;;;3.03;2.10;;;;;;;5.37;100.00;102082.75;2076886;28;20199;-61
2023/02/03 03:59:48;;;;;;;6.30;2.35;;;;;;;5.34;100.00;102090.94;2076402;28;20189;-60
2023/02/03 04:00:49;;;;;;;4.55;2.78;;;;;;;5.35;100.00;102087.81;2075473;28;20181;-61
2023/02/03 04:01:51;;;;;;;4.18;2.35;;;;;;;5.37;100.00;102092.94;2080496;28;20570;-60
2023/02/03 04:02:54;;;;;;;5.60;2.35;;;;;;;5.37;100.00;102093.75;2080602;28;20235;-60
2023/02/03 04:03:58;;;;;;;4.35;2.30;;;;;;;5.39;100.00;102101.63;2080414;28;20628;-60
2023/02/03 04:05:01;;;;;;;6.38;2.50;;;;;;;5.40;100.00;102086.72;2072854;28;20635;-61
2023/02/03 04:06:02;;;;;;;5.43;2.63;;;;;;;5.42;100.00;102095.41;2088476;28;20290;-61
2023/02/03 04:07:02;;;;;;;6.60;2.50;;;;;;;5.42;100.00;102117.38;2081760;28;20188;-62
2023/02/03 04:08:03;;;;;;;4.27;2.53;;;;;;;5.41;100.00;102100.13;2085923;28;20595;-61
2023/02/03 04:09:04;;;;;;;3.77;2.23;;;;;;;4.52;100.00;101968.69;2083331;28;20192;-61
2023/02/03 04:10:11;;;;;;;4.60;2.40;;;;;;;5.38;100.00;102111.81;2082968;28;20544;-60
2023/02/03 04:11:59;;;;;;;5.40;2.63;;;;;;;5.34;100.00;102090.94;2085780;28;20188;-61
2023/02/03 04:12:32;;;;;;;5.07;2.40;;;;;;;5.37;100.00;102095.69;2085164;28;20208;-60
2023/02/03 04:13:32;;;;;;;5.63;2.83;;;;;;;5.40;100.00;102097.72;2085284;28;20784;-61
2023/02/03 04:14:38;;;;;;;5.13;2.70;;;;;;;5.36;100.00;102100.41;2082699;28;20243;-61
2023/02/03 04:15:39;;;;;;;4.72;2.88;;;;;;;5.34;100.00;102099.19;2086614;28;20163;-61
2023/02/03 04:16:39;;;;;;;4.17;2.77;;;;;;;5.28;100.00;102087.66;2081299;28;20200;-60
2023/02/03 04:17:39;;;;;;;4.57;2.97;;;;;;;5.34;100.00;102097.19;2088981;28;20175;-61
2023/02/03 04:18:40;;;;;;;5.03;2.63;;;;;;;5.34;100.00;102090.94;2081089;28;20689;-61
2023/02/03 04:19:40;;;;;;;4.20;2.73;;;;;;;5.30;100.00;102106.53;2086682;28;20184;-61
2023/02/03 04:20:41;;;;;;;5.50;3.00;;;;;;;4.99;100.00;102057.19;2083360;28;20216;-61
2023/02/03 04:21:42;;;;;;;5.13;2.87;;;;;;;5.28;100.00;102104.16;2084754;28;20256;-60
2023/02/03 04:22:42;;;;;;;6.20;3.00;;;;;;;5.23;100.00;102087.16;2085754;28;20184;-60
2023/02/03 04:23:42;;;;;;;4.23;2.60;;;;;;;5.28;100.00;102104.16;2082382;28;20536;-61
2023/02/03 04:24:43;;;;;;;5.67;2.37;;;;;;;5.31;100.00;102105.38;2088180;28;20168;-60
2023/02/03 04:25:43;;;;;;;7.20;2.70;;;;;;;5.31;100.00;102111.69;2080341;28;20178;-60
2023/02/03 04:26:44;;;;;;;4.20;2.50;;;;;;;5.20;100.00;102096.13;2088294;28;20669;-61
2023/02/03 04:27:44;;;;;;;5.73;2.60;;;;;;;5.30;100.00;102118.34;2082303;28;20235;-60
2023/02/03 04:28:44;;;;;;;4.77;2.80;;;;;;;4.22;100.00;101938.22;2085974;28;20198;-61
2023/02/03 04:29:46;;;;;;;6.53;3.13;;;;;;;5.28;100.00;102106.13;2083299;28;20728;-61
2023/02/03 04:30:46;;;;;;;6.10;3.15;;;;;;;5.25;100.00;102110.38;2083067;28;20184;-60
2023/02/03 04:31:47;;;;;;;4.33;2.73;;;;;;;5.24;100.00;102099.75;2085041;28;20200;-61
2023/02/03 04:32:47;;;;;;;5.73;2.97;;;;;;;5.18;100.00;102123.19;2081425;28;20231;-60
2023/02/03 04:33:48;;;;;;;5.70;3.37;;;;;;;5.28;100.00;102104.16;2089027;28;20677;-61
2023/02/03 04:34:48;;;;;;;5.00;3.27;;;;;;;5.27;100.00;102110.81;2080758;28;20231;-61
2023/02/03 04:35:48;;;;;;;5.37;2.87;;;;;;;5.30;100.00;102109.28;2086884;28;20188;-61
2023/02/03 04:36:49;;;;;;;6.03;2.67;;;;;;;4.68;100.00;102016.09;2083230;28;20185;-61
2023/02/03 04:37:49;;;;;;;3.47;2.80;;;;;;;5.21;100.00;102122.44;2080602;28;20216;-61
2023/02/03 04:38:50;;;;;;;4.70;2.80;;;;;;;5.26;100.00;102117.47;2080350;28;20699;-60
2023/02/03 04:39:51;;;;;;;6.37;2.90;;;;;;;5.25;100.00;102124.13;2082004;28;20181;-61
2023/02/03 04:40:51;;;;;;;4.47;2.57;;;;;;;5.23;100.00;102128.41;2083504;28;20185;-60
2023/02/03 04:41:52;;;;;;;5.20;2.50;;;;;;;4.99;100.00;102099.22;2080662;28;20200;-62
2023/02/03 04:42:52;;;;;;;5.63;3.00;;;;;;;5.20;100.00;102120.84;2080620;28;20196;-61
2023/02/03 04:43:53;;;;;;;7.80;3.20;;;;;;;4.61;100.00;102027.72;2073809;28;20692;-60
2023/02/03 04:44:53;;;;;;;6.27;3.07;;;;;;;5.22;100.00;102119.34;2072290;28;20192;-61
2023/02/03 04:45:53;;;;;;;4.43;2.60;;;;;;;5.18;100.00;102129.44;2072068;28;20568;-60
2023/02/03 04:46:54;;;;;;;4.70;3.00;;;;;;;5.17;100.00;102110.56;2072236;28;20213;-61
2023/02/03 04:47:54;;;;;;;6.53;2.70;;;;;;;5.24;100.00;102125.25;2072373;28;20174;-60
2023/02/03 04:48:55;;;;;;;5.90;2.97;;;;;;;5.27;100.00;102108.06;2080209;28;20231;-60
2023/02/03 04:49:55;;;;;;;4.60;2.80;;;;;;;5.27;100.00;102112.75;2080073;28;20188;-61
2023/02/03 04:51:01;;;;;;;4.33;2.77;;;;;;;5.26;100.00;102124.91;2072232;28;20189;-61
2023/02/03 04:52:01;;;;;;;4.22;2.70;;;;;;;5.26;100.00;102131.22;2079769;28;20201;-61
2023/02/03 04:53:02;;;;;;;6.17;2.80;;;;;;;5.21;100.00;102137.00;2079987;28;20192;-61
2023/02/03 04:54:02;;;;;;;4.07;2.57;;;;;;;5.17;100.00;102129.81;2072374;28;20255;-61
2023/02/03 04:55:03;;;;;;;4.93;2.50;;;;;;;5.17;100.00;102127.88;2072411;28;20204;-61
2023/02/03 04:56:04;;;;;;;3.57;2.60;;;;;;;5.13;100.00;102124.25;2071873;28;20200;-61
2023/02/03 04:57:04;;;;;;;4.30;2.80;;;;;;;4.82;100.00;102087.84;2072339;28;20553;-61
2023/02/03 04:58:05;;;;;;;4.37;2.37;;;;;;;5.13;100.00;102129.72;2072158;28;20189;-61
2023/02/03 04:59:05;;;;;;;5.77;2.60;;;;;;;5.22;100.00;102137.78;2072571;28;20651;-60
2023/02/03 05:00:06;;;;;;;5.30;3.10;;;;;;;5.16;100.00;102134.53;2071751;28;20178;-61